sensor_id;sensor_type;location;lat;lon;timestamp;P1;durP1;ratioP1;P2;durP2;ratioP2
19257;SDS011;9763;48.780;9.212;2023-04-24T00:02:55;1.40;;;0.80;;
19257;SDS011;9763;48.780;9.212;2023-04-24T00:06:20;1.50;;;0.80;;
19257;SDS011;9763;48.780;9.212;2023-04-24T00:09:45;1.23;;;0.70;;
19257;SDS011;9763;48.780;9.212;2023-04-24T00:13:10;1.13;;;0.70;;
19257;SDS011;9763;48.780;9.212;2023-04-24T00:16:34;1.20;;;0.80;;
19257;SDS011;9763;48.780;9.212;2023-04-24T00:19:58;1.17;;;0.73;;
19257;SDS011;9763;48.780;9.212;2023-04-24T00:23:22;1.10;;;0.63;;
19257;SDS011;9763;48.780;9.212;2023-04-24T00:26:46;1.67;;;0.70;;
19257;SDS011;9763;48.780;9.212;2023-04-24T00:30:12;1.33;;;0.80;;
19257;SDS011;9763;48.780;9.212;2023-04-24T00:33:36;1.10;;;0.70;;
19257;SDS011;9763;48.780;9.212;2023-04-24T00:37:00;1.40;;;0.70;;
19257;SDS011;9763;48.780;9.212;2023-04-24T00:40:24;1.10;;;0.70;;
19257;SDS011;9763;48.780;9.212;2023-04-24T00:43:47;2.27;;;0.70;;
19257;SDS011;9763;48.780;9.212;2023-04-24T00:47:13;1.10;;;0.70;;
19257;SDS011;9763;48.780;9.212;2023-04-24T00:50:38;1.10;;;0.60;;
19257;SDS011;9763;48.780;9.212;2023-04-24T00:54:02;1.43;;;0.80;;
19257;SDS011;9763;48.780;9.212;2023-04-24T00:57:26;1.20;;;0.73;;
19257;SDS011;9763;48.780;9.212;2023-04-24T01:00:50;1.20;;;0.80;;
19257;SDS011;9763;48.780;9.212;2023-04-24T01:04:16;1.20;;;0.70;;
19257;SDS011;9763;48.780;9.212;2023-04-24T01:07:43;1.10;;;0.80;;
19257;SDS011;9763;48.780;9.212;2023-04-24T01:11:10;1.70;;;0.70;;
19257;SDS011;9763;48.780;9.212;2023-04-24T01:14:34;1.20;;;0.70;;
19257;SDS011;9763;48.780;9.212;2023-04-24T01:17:59;1.10;;;0.70;;
19257;SDS011;9763;48.780;9.212;2023-04-24T01:21:24;1.40;;;0.80;;
19257;SDS011;9763;48.780;9.212;2023-04-24T01:24:52;1.20;;;0.73;;
19257;SDS011;9763;48.780;9.212;2023-04-24T01:28:16;1.20;;;0.70;;
19257;SDS011;9763;48.780;9.212;2023-04-24T01:31:41;1.30;;;0.80;;
19257;SDS011;9763;48.780;9.212;2023-04-24T01:35:06;1.20;;;0.67;;
19257;SDS011;9763;48.780;9.212;2023-04-24T01:38:30;1.10;;;0.60;;
19257;SDS011;9763;48.780;9.212;2023-04-24T01:41:55;1.20;;;0.80;;
19257;SDS011;9763;48.780;9.212;2023-04-24T01:45:19;1.50;;;0.80;;
19257;SDS011;9763;48.780;9.212;2023-04-24T01:48:44;1.30;;;0.63;;
19257;SDS011;9763;48.780;9.212;2023-04-24T01:52:08;1.23;;;0.80;;
19257;SDS011;9763;48.780;9.212;2023-04-24T01:55:32;2.43;;;0.80;;
19257;SDS011;9763;48.780;9.212;2023-04-24T01:58:58;1.30;;;0.70;;
19257;SDS011;9763;48.780;9.212;2023-04-24T02:02:25;1.20;;;0.70;;
19257;SDS011;9763;48.780;9.212;2023-04-24T02:05:51;1.10;;;0.70;;
19257;SDS011;9763;48.780;9.212;2023-04-24T02:09:15;1.10;;;0.60;;
19257;SDS011;9763;48.780;9.212;2023-04-24T02:12:39;1.13;;;0.67;;
19257;SDS011;9763;48.780;9.212;2023-04-24T02:16:04;1.60;;;0.90;;
19257;SDS011;9763;48.780;9.212;2023-04-24T02:19:28;1.50;;;0.80;;
19257;SDS011;9763;48.780;9.212;2023-04-24T02:22:52;1.20;;;0.77;;
19257;SDS011;9763;48.780;9.212;2023-04-24T02:26:16;1.10;;;0.70;;
19257;SDS011;9763;48.780;9.212;2023-04-24T02:29:40;1.20;;;0.63;;
19257;SDS011;9763;48.780;9.212;2023-04-24T02:33:06;1.20;;;0.67;;
19257;SDS011;9763;48.780;9.212;2023-04-24T02:36:30;1.10;;;0.70;;
19257;SDS011;9763;48.780;9.212;2023-04-24T02:39:54;1.20;;;0.63;;
19257;SDS011;9763;48.780;9.212;2023-04-24T02:43:17;1.30;;;0.70;;
19257;SDS011;9763;48.780;9.212;2023-04-24T02:46:41;1.20;;;0.70;;
19257;SDS011;9763;48.780;9.212;2023-04-24T02:50:09;1.20;;;0.70;;
19257;SDS011;9763;48.780;9.212;2023-04-24T02:53:32;1.67;;;0.70;;
19257;SDS011;9763;48.780;9.212;2023-04-24T02:56:56;1.10;;;0.70;;
19257;SDS011;9763;48.780;9.212;2023-04-24T03:00:20;1.10;;;0.60;;
19257;SDS011;9763;48.780;9.212;2023-04-24T03:03:44;2.23;;;0.70;;
19257;SDS011;9763;48.780;9.212;2023-04-24T03:07:10;1.40;;;0.70;;
19257;SDS011;9763;48.780;9.212;2023-04-24T03:10:34;1.10;;;0.67;;
19257;SDS011;9763;48.780;9.212;2023-04-24T03:13:58;1.17;;;0.77;;
19257;SDS011;9763;48.780;9.212;2023-04-24T03:17:22;1.20;;;0.60;;
19257;SDS011;9763;48.780;9.212;2023-04-24T03:20:45;1.43;;;0.70;;
19257;SDS011;9763;48.780;9.212;2023-04-24T03:24:11;1.20;;;0.77;;
19257;SDS011;9763;48.780;9.212;2023-04-24T03:27:35;1.20;;;0.73;;
19257;SDS011;9763;48.780;9.212;2023-04-24T03:31:09;1.10;;;0.60;;
19257;SDS011;9763;48.780;9.212;2023-04-24T03:34:33;1.27;;;0.80;;
19257;SDS011;9763;48.780;9.212;2023-04-24T03:37:57;1.10;;;0.60;;
19257;SDS011;9763;48.780;9.212;2023-04-24T03:41:34;1.10;;;0.60;;
19257;SDS011;9763;48.780;9.212;2023-04-24T03:45:09;1.20;;;0.70;;
19257;SDS011;9763;48.780;9.212;2023-04-24T03:48:36;1.50;;;0.80;;
19257;SDS011;9763;48.780;9.212;2023-04-24T03:52:02;1.10;;;0.60;;
19257;SDS011;9763;48.780;9.212;2023-04-24T03:55:26;1.10;;;0.60;;
19257;SDS011;9763;48.780;9.212;2023-04-24T03:58:51;1.33;;;1.10;;
19257;SDS011;9763;48.780;9.212;2023-04-24T04:02:15;1.20;;;0.67;;
19257;SDS011;9763;48.780;9.212;2023-04-24T04:05:39;1.10;;;0.70;;
19257;SDS011;9763;48.780;9.212;2023-04-24T04:09:03;1.43;;;0.70;;
19257;SDS011;9763;48.780;9.212;2023-04-24T04:12:29;1.20;;;0.63;;
19257;SDS011;9763;48.780;9.212;2023-04-24T04:15:55;1.20;;;0.73;;
19257;SDS011;9763;48.780;9.212;2023-04-24T04:19:19;1.60;;;0.70;;
19257;SDS011;9763;48.780;9.212;2023-04-24T04:22:43;1.10;;;0.60;;
19257;SDS011;9763;48.780;9.212;2023-04-24T04:26:12;1.10;;;0.60;;
19257;SDS011;9763;48.780;9.212;2023-04-24T04:29:54;1.30;;;0.80;;
19257;SDS011;9763;48.780;9.212;2023-04-24T04:33:26;1.67;;;0.70;;
19257;SDS011;9763;48.780;9.212;2023-04-24T04:36:50;1.50;;;0.83;;
19257;SDS011;9763;48.780;9.212;2023-04-24T04:40:25;1.30;;;0.80;;
19257;SDS011;9763;48.780;9.212;2023-04-24T04:43:55;1.50;;;0.80;;
19257;SDS011;9763;48.780;9.212;2023-04-24T04:47:21;1.10;;;0.60;;
19257;SDS011;9763;48.780;9.212;2023-04-24T04:50:48;1.20;;;0.90;;
19257;SDS011;9763;48.780;9.212;2023-04-24T04:54:14;1.93;;;0.83;;
19257;SDS011;9763;48.780;9.212;2023-04-24T04:57:38;1.30;;;0.90;;
19257;SDS011;9763;48.780;9.212;2023-04-24T05:01:02;1.20;;;0.80;;
19257;SDS011;9763;48.780;9.212;2023-04-24T05:04:31;1.30;;;0.90;;
19257;SDS011;9763;48.780;9.212;2023-04-24T05:07:57;1.27;;;0.90;;
19257;SDS011;9763;48.780;9.212;2023-04-24T05:11:21;1.87;;;1.00;;
19257;SDS011;9763;48.780;9.212;2023-04-24T05:14:46;1.40;;;0.97;;
19257;SDS011;9763;48.780;9.212;2023-04-24T05:18:10;1.40;;;0.90;;
19257;SDS011;9763;48.780;9.212;2023-04-24T05:21:34;1.30;;;0.90;;
19257;SDS011;9763;48.780;9.212;2023-04-24T05:25:00;1.50;;;1.10;;
19257;SDS011;9763;48.780;9.212;2023-04-24T05:28:46;1.47;;;1.10;;
19257;SDS011;9763;48.780;9.212;2023-04-24T05:32:11;1.53;;;1.00;;
19257;SDS011;9763;48.780;9.212;2023-04-24T05:35:35;1.23;;;0.90;;
19257;SDS011;9763;48.780;9.212;2023-04-24T05:38:58;1.60;;;1.00;;
19257;SDS011;9763;48.780;9.212;2023-04-24T05:42:24;1.83;;;1.13;;
19257;SDS011;9763;48.780;9.212;2023-04-24T05:45:47;1.83;;;1.00;;
19257;SDS011;9763;48.780;9.212;2023-04-24T05:49:12;1.40;;;1.00;;
19257;SDS011;9763;48.780;9.212;2023-04-24T05:52:37;1.30;;;0.80;;
19257;SDS011;9763;48.780;9.212;2023-04-24T05:56:15;1.30;;;1.03;;
19257;SDS011;9763;48.780;9.212;2023-04-24T05:59:40;1.30;;;1.00;;
19257;SDS011;9763;48.780;9.212;2023-04-24T06:03:05;1.63;;;0.80;;
19257;SDS011;9763;48.780;9.212;2023-04-24T06:06:29;1.20;;;0.90;;
19257;SDS011;9763;48.780;9.212;2023-04-24T06:09:54;1.10;;;0.87;;
19257;SDS011;9763;48.780;9.212;2023-04-24T06:13:18;1.47;;;1.17;;
19257;SDS011;9763;48.780;9.212;2023-04-24T06:17:03;1.40;;;1.07;;
19257;SDS011;9763;48.780;9.212;2023-04-24T06:20:32;1.20;;;0.90;;
19257;SDS011;9763;48.780;9.212;2023-04-24T06:24:00;1.20;;;0.80;;
19257;SDS011;9763;48.780;9.212;2023-04-24T06:27:25;1.30;;;1.07;;
19257;SDS011;9763;48.780;9.212;2023-04-24T06:30:49;1.30;;;1.10;;
19257;SDS011;9763;48.780;9.212;2023-04-24T06:34:14;1.80;;;1.20;;
19257;SDS011;9763;48.780;9.212;2023-04-24T06:37:38;1.40;;;1.00;;
19257;SDS011;9763;48.780;9.212;2023-04-24T06:41:03;2.30;;;1.10;;
19257;SDS011;9763;48.780;9.212;2023-04-24T06:44:27;1.30;;;1.00;;
19257;SDS011;9763;48.780;9.212;2023-04-24T06:47:51;1.20;;;0.90;;
19257;SDS011;9763;48.780;9.212;2023-04-24T06:51:17;1.30;;;1.00;;
19257;SDS011;9763;48.780;9.212;2023-04-24T06:54:41;1.47;;;1.00;;
19257;SDS011;9763;48.780;9.212;2023-04-24T06:58:05;1.60;;;1.13;;
19257;SDS011;9763;48.780;9.212;2023-04-24T07:01:29;1.67;;;0.93;;
19257;SDS011;9763;48.780;9.212;2023-04-24T07:04:53;1.50;;;1.10;;
19257;SDS011;9763;48.780;9.212;2023-04-24T07:08:18;1.37;;;1.10;;
19257;SDS011;9763;48.780;9.212;2023-04-24T07:11:43;1.53;;;1.00;;
19257;SDS011;9763;48.780;9.212;2023-04-24T07:15:08;1.80;;;1.40;;
19257;SDS011;9763;48.780;9.212;2023-04-24T07:18:33;1.30;;;1.03;;
19257;SDS011;9763;48.780;9.212;2023-04-24T07:21:58;1.37;;;0.97;;
19257;SDS011;9763;48.780;9.212;2023-04-24T07:25:23;5.00;;;1.20;;
19257;SDS011;9763;48.780;9.212;2023-04-24T07:28:47;1.83;;;1.30;;
19257;SDS011;9763;48.780;9.212;2023-04-24T07:32:11;1.37;;;1.13;;
19257;SDS011;9763;48.780;9.212;2023-04-24T07:35:35;2.00;;;1.30;;
19257;SDS011;9763;48.780;9.212;2023-04-24T07:38:59;1.60;;;1.20;;
19257;SDS011;9763;48.780;9.212;2023-04-24T07:42:24;1.30;;;1.13;;
19257;SDS011;9763;48.780;9.212;2023-04-24T07:45:48;1.33;;;1.10;;
19257;SDS011;9763;48.780;9.212;2023-04-24T07:49:12;2.17;;;1.30;;
19257;SDS011;9763;48.780;9.212;2023-04-24T07:52:39;2.60;;;1.37;;
19257;SDS011;9763;48.780;9.212;2023-04-24T07:56:02;2.30;;;1.07;;
19257;SDS011;9763;48.780;9.212;2023-04-24T07:59:29;1.77;;;1.43;;
19257;SDS011;9763;48.780;9.212;2023-04-24T08:02:53;2.70;;;1.77;;
19257;SDS011;9763;48.780;9.212;2023-04-24T08:06:17;1.90;;;1.27;;
19257;SDS011;9763;48.780;9.212;2023-04-24T08:09:41;1.60;;;1.40;;
19257;SDS011;9763;48.780;9.212;2023-04-24T08:13:05;1.57;;;1.37;;
19257;SDS011;9763;48.780;9.212;2023-04-24T08:16:30;2.50;;;1.40;;
19257;SDS011;9763;48.780;9.212;2023-04-24T08:19:55;2.00;;;1.30;;
19257;SDS011;9763;48.780;9.212;2023-04-24T08:23:23;1.83;;;1.20;;
19257;SDS011;9763;48.780;9.212;2023-04-24T08:26:47;2.80;;;1.37;;
19257;SDS011;9763;48.780;9.212;2023-04-24T08:30:12;1.37;;;1.00;;
19257;SDS011;9763;48.780;9.212;2023-04-24T08:33:37;1.50;;;1.10;;
19257;SDS011;9763;48.780;9.212;2023-04-24T08:37:02;1.83;;;1.37;;
19257;SDS011;9763;48.780;9.212;2023-04-24T08:40:27;1.70;;;1.20;;
19257;SDS011;9763;48.780;9.212;2023-04-24T08:43:52;3.53;;;1.40;;
19257;SDS011;9763;48.780;9.212;2023-04-24T08:47:16;1.70;;;1.10;;
19257;SDS011;9763;48.780;9.212;2023-04-24T08:50:44;1.77;;;1.37;;
19257;SDS011;9763;48.780;9.212;2023-04-24T08:54:10;2.10;;;1.43;;
19257;SDS011;9763;48.780;9.212;2023-04-24T08:57:34;2.63;;;1.00;;
19257;SDS011;9763;48.780;9.212;2023-04-24T09:01:01;1.50;;;1.30;;
19257;SDS011;9763;48.780;9.212;2023-04-24T09:04:26;1.50;;;1.20;;
19257;SDS011;9763;48.780;9.212;2023-04-24T09:07:54;1.40;;;1.17;;
19257;SDS011;9763;48.780;9.212;2023-04-24T09:11:19;1.40;;;1.00;;
19257;SDS011;9763;48.780;9.212;2023-04-24T09:14:45;1.87;;;1.20;;
19257;SDS011;9763;48.780;9.212;2023-04-24T09:18:08;1.93;;;1.20;;
19257;SDS011;9763;48.780;9.212;2023-04-24T09:21:32;1.90;;;1.70;;
19257;SDS011;9763;48.780;9.212;2023-04-24T09:25:05;2.70;;;1.37;;
19257;SDS011;9763;48.780;9.212;2023-04-24T09:28:31;2.50;;;1.40;;
19257;SDS011;9763;48.780;9.212;2023-04-24T09:31:57;1.87;;;1.40;;
19257;SDS011;9763;48.780;9.212;2023-04-24T09:35:21;3.37;;;1.50;;
19257;SDS011;9763;48.780;9.212;2023-04-24T09:38:45;1.30;;;1.00;;
19257;SDS011;9763;48.780;9.212;2023-04-24T09:42:10;1.40;;;1.00;;
19257;SDS011;9763;48.780;9.212;2023-04-24T09:45:35;1.47;;;1.10;;
19257;SDS011;9763;48.780;9.212;2023-04-24T09:49:04;1.70;;;1.20;;
19257;SDS011;9763;48.780;9.212;2023-04-24T09:52:32;1.80;;;1.10;;
19257;SDS011;9763;48.780;9.212;2023-04-24T09:55:56;2.17;;;1.50;;
19257;SDS011;9763;48.780;9.212;2023-04-24T09:59:26;3.93;;;1.43;;
19257;SDS011;9763;48.780;9.212;2023-04-24T10:02:51;2.00;;;1.10;;
19257;SDS011;9763;48.780;9.212;2023-04-24T10:06:18;1.90;;;1.30;;
19257;SDS011;9763;48.780;9.212;2023-04-24T10:09:42;1.53;;;1.27;;
19257;SDS011;9763;48.780;9.212;2023-04-24T10:13:07;1.50;;;1.23;;
19257;SDS011;9763;48.780;9.212;2023-04-24T10:16:33;1.40;;;1.10;;
19257;SDS011;9763;48.780;9.212;2023-04-24T10:19:57;5.47;;;1.30;;
19257;SDS011;9763;48.780;9.212;2023-04-24T10:23:23;1.47;;;1.10;;
19257;SDS011;9763;48.780;9.212;2023-04-24T10:26:48;1.97;;;1.20;;
19257;SDS011;9763;48.780;9.212;2023-04-24T10:30:12;1.93;;;1.17;;
19257;SDS011;9763;48.780;9.212;2023-04-24T10:33:38;1.93;;;1.20;;
19257;SDS011;9763;48.780;9.212;2023-04-24T10:37:04;2.20;;;1.20;;
19257;SDS011;9763;48.780;9.212;2023-04-24T10:40:29;1.70;;;1.20;;
19257;SDS011;9763;48.780;9.212;2023-04-24T10:44:06;1.70;;;1.10;;
19257;SDS011;9763;48.780;9.212;2023-04-24T10:47:39;1.50;;;1.20;;
19257;SDS011;9763;48.780;9.212;2023-04-24T10:51:05;1.43;;;1.10;;
19257;SDS011;9763;48.780;9.212;2023-04-24T10:54:34;2.30;;;1.83;;
19257;SDS011;9763;48.780;9.212;2023-04-24T10:58:02;1.67;;;1.23;;
19257;SDS011;9763;48.780;9.212;2023-04-24T11:01:27;1.70;;;1.20;;
19257;SDS011;9763;48.780;9.212;2023-04-24T11:04:52;1.20;;;0.80;;
19257;SDS011;9763;48.780;9.212;2023-04-24T11:08:22;1.40;;;1.10;;
19257;SDS011;9763;48.780;9.212;2023-04-24T11:11:49;1.20;;;0.90;;
19257;SDS011;9763;48.780;9.212;2023-04-24T11:15:12;1.80;;;0.93;;
19257;SDS011;9763;48.780;9.212;2023-04-24T11:18:41;2.13;;;1.00;;
19257;SDS011;9763;48.780;9.212;2023-04-24T11:22:14;1.50;;;1.10;;
19257;SDS011;9763;48.780;9.212;2023-04-24T11:25:41;1.60;;;1.10;;
19257;SDS011;9763;48.780;9.212;2023-04-24T11:29:06;1.40;;;0.90;;
19257;SDS011;9763;48.780;9.212;2023-04-24T11:32:30;1.30;;;1.00;;
19257;SDS011;9763;48.780;9.212;2023-04-24T11:35:57;1.30;;;1.10;;
19257;SDS011;9763;48.780;9.212;2023-04-24T11:39:21;1.57;;;1.30;;
19257;SDS011;9763;48.780;9.212;2023-04-24T11:42:47;1.30;;;0.90;;
19257;SDS011;9763;48.780;9.212;2023-04-24T11:46:11;2.00;;;1.20;;
19257;SDS011;9763;48.780;9.212;2023-04-24T11:49:39;1.40;;;1.10;;
19257;SDS011;9763;48.780;9.212;2023-04-24T11:53:03;2.23;;;1.03;;
19257;SDS011;9763;48.780;9.212;2023-04-24T11:56:27;1.70;;;1.07;;
19257;SDS011;9763;48.780;9.212;2023-04-24T11:59:52;1.73;;;1.20;;
19257;SDS011;9763;48.780;9.212;2023-04-24T12:03:17;1.53;;;1.00;;
19257;SDS011;9763;48.780;9.212;2023-04-24T12:10:24;1.33;;;1.00;;
19257;SDS011;9763;48.780;9.212;2023-04-24T12:13:49;2.10;;;1.20;;
19257;SDS011;9763;48.780;9.212;2023-04-24T12:17:14;1.40;;;1.13;;
19257;SDS011;9763;48.780;9.212;2023-04-24T12:20:38;1.50;;;1.37;;
19257;SDS011;9763;48.780;9.212;2023-04-24T12:24:05;1.40;;;1.17;;
19257;SDS011;9763;48.780;9.212;2023-04-24T12:27:30;1.33;;;1.00;;
19257;SDS011;9763;48.780;9.212;2023-04-24T12:30:55;1.60;;;1.20;;
19257;SDS011;9763;48.780;9.212;2023-04-24T12:34:20;2.70;;;1.23;;
19257;SDS011;9763;48.780;9.212;2023-04-24T12:37:46;1.50;;;1.20;;
19257;SDS011;9763;48.780;9.212;2023-04-24T12:41:11;3.30;;;1.40;;
19257;SDS011;9763;48.780;9.212;2023-04-24T12:44:36;2.43;;;1.17;;
19257;SDS011;9763;48.780;9.212;2023-04-24T12:47:59;1.30;;;1.17;;
19257;SDS011;9763;48.780;9.212;2023-04-24T12:51:25;1.87;;;1.40;;
19257;SDS011;9763;48.780;9.212;2023-04-24T12:54:49;2.57;;;1.30;;
19257;SDS011;9763;48.780;9.212;2023-04-24T12:58:15;1.43;;;1.10;;
19257;SDS011;9763;48.780;9.212;2023-04-24T13:01:39;1.43;;;1.10;;
19257;SDS011;9763;48.780;9.212;2023-04-24T13:05:04;1.43;;;1.30;;
19257;SDS011;9763;48.780;9.212;2023-04-24T13:08:29;1.33;;;1.00;;
19257;SDS011;9763;48.780;9.212;2023-04-24T13:11:54;1.30;;;0.90;;
19257;SDS011;9763;48.780;9.212;2023-04-24T13:15:18;1.20;;;0.90;;
19257;SDS011;9763;48.780;9.212;2023-04-24T13:18:41;2.07;;;1.07;;
19257;SDS011;9763;48.780;9.212;2023-04-24T13:22:05;1.93;;;1.07;;
19257;SDS011;9763;48.780;9.212;2023-04-24T13:25:34;1.30;;;1.00;;
19257;SDS011;9763;48.780;9.212;2023-04-24T13:29:00;1.37;;;1.00;;
19257;SDS011;9763;48.780;9.212;2023-04-24T13:32:24;1.40;;;1.10;;
19257;SDS011;9763;48.780;9.212;2023-04-24T13:35:50;1.60;;;1.10;;
19257;SDS011;9763;48.780;9.212;2023-04-24T13:39:14;1.20;;;1.00;;
19257;SDS011;9763;48.780;9.212;2023-04-24T13:42:39;1.40;;;1.00;;
19257;SDS011;9763;48.780;9.212;2023-04-24T13:46:03;2.13;;;1.17;;
19257;SDS011;9763;48.780;9.212;2023-04-24T13:49:27;1.97;;;1.10;;
19257;SDS011;9763;48.780;9.212;2023-04-24T13:52:51;1.93;;;1.00;;
19257;SDS011;9763;48.780;9.212;2023-04-24T13:56:15;1.80;;;1.20;;
19257;SDS011;9763;48.780;9.212;2023-04-24T13:59:40;2.53;;;1.30;;
19257;SDS011;9763;48.780;9.212;2023-04-24T14:03:04;1.60;;;1.00;;
19257;SDS011;9763;48.780;9.212;2023-04-24T14:06:28;1.30;;;1.00;;
19257;SDS011;9763;48.780;9.212;2023-04-24T14:09:52;1.33;;;0.90;;
19257;SDS011;9763;48.780;9.212;2023-04-24T14:13:16;1.20;;;0.93;;
19257;SDS011;9763;48.780;9.212;2023-04-24T14:16:42;1.90;;;1.00;;
19257;SDS011;9763;48.780;9.212;2023-04-24T14:20:06;1.30;;;0.90;;
19257;SDS011;9763;48.780;9.212;2023-04-24T14:23:30;1.47;;;1.00;;
19257;SDS011;9763;48.780;9.212;2023-04-24T14:26:54;1.20;;;1.00;;
19257;SDS011;9763;48.780;9.212;2023-04-24T14:30:18;1.77;;;1.10;;
19257;SDS011;9763;48.780;9.212;2023-04-24T14:33:44;1.70;;;1.20;;
19257;SDS011;9763;48.780;9.212;2023-04-24T14:37:08;1.30;;;0.97;;
19257;SDS011;9763;48.780;9.212;2023-04-24T14:40:31;1.10;;;0.80;;
19257;SDS011;9763;48.780;9.212;2023-04-24T14:43:58;1.40;;;1.00;;
19257;SDS011;9763;48.780;9.212;2023-04-24T14:47:22;1.40;;;0.90;;
19257;SDS011;9763;48.780;9.212;2023-04-24T14:50:47;1.30;;;0.80;;
19257;SDS011;9763;48.780;9.212;2023-04-24T14:54:11;1.60;;;1.10;;
19257;SDS011;9763;48.780;9.212;2023-04-24T14:57:35;1.30;;;1.03;;
19257;SDS011;9763;48.780;9.212;2023-04-24T15:00:59;3.00;;;1.27;;
19257;SDS011;9763;48.780;9.212;2023-04-24T15:04:23;1.57;;;1.33;;
19257;SDS011;9763;48.780;9.212;2023-04-24T15:07:49;1.40;;;1.17;;
19257;SDS011;9763;48.780;9.212;2023-04-24T15:11:13;1.30;;;1.10;;
19257;SDS011;9763;48.780;9.212;2023-04-24T15:14:37;2.83;;;1.40;;
19257;SDS011;9763;48.780;9.212;2023-04-24T15:18:01;4.30;;;1.47;;
19257;SDS011;9763;48.780;9.212;2023-04-24T15:21:25;2.10;;;1.30;;
19257;SDS011;9763;48.780;9.212;2023-04-24T15:24:50;2.70;;;1.20;;
19257;SDS011;9763;48.780;9.212;2023-04-24T15:28:14;3.80;;;2.73;;
19257;SDS011;9763;48.780;9.212;2023-04-24T15:31:37;1.80;;;1.57;;
19257;SDS011;9763;48.780;9.212;2023-04-24T15:35:02;1.50;;;1.13;;
19257;SDS011;9763;48.780;9.212;2023-04-24T15:38:30;1.70;;;1.40;;
19257;SDS011;9763;48.780;9.212;2023-04-24T15:41:56;3.27;;;1.43;;
19257;SDS011;9763;48.780;9.212;2023-04-24T15:45:19;2.33;;;1.30;;
19257;SDS011;9763;48.780;9.212;2023-04-24T15:48:43;1.70;;;1.17;;
19257;SDS011;9763;48.780;9.212;2023-04-24T15:52:07;1.30;;;1.00;;
19257;SDS011;9763;48.780;9.212;2023-04-24T15:55:32;1.50;;;1.10;;
19257;SDS011;9763;48.780;9.212;2023-04-24T15:58:59;1.40;;;1.23;;
19257;SDS011;9763;48.780;9.212;2023-04-24T16:02:23;1.50;;;1.10;;
19257;SDS011;9763;48.780;9.212;2023-04-24T16:05:47;1.30;;;0.80;;
19257;SDS011;9763;48.780;9.212;2023-04-24T16:09:12;1.10;;;0.80;;
19257;SDS011;9763;48.780;9.212;2023-04-24T16:12:36;1.47;;;0.90;;
19257;SDS011;9763;48.780;9.212;2023-04-24T16:16:01;1.50;;;0.90;;
19257;SDS011;9763;48.780;9.212;2023-04-24T16:19:25;1.80;;;1.23;;
19257;SDS011;9763;48.780;9.212;2023-04-24T16:22:49;2.50;;;1.20;;
19257;SDS011;9763;48.780;9.212;2023-04-24T16:26:13;1.20;;;1.00;;
19257;SDS011;9763;48.780;9.212;2023-04-24T16:29:37;3.70;;;2.03;;
19257;SDS011;9763;48.780;9.212;2023-04-24T16:33:02;2.00;;;1.63;;
19257;SDS011;9763;48.780;9.212;2023-04-24T16:36:29;1.90;;;1.37;;
19257;SDS011;9763;48.780;9.212;2023-04-24T16:39:53;1.40;;;1.17;;
19257;SDS011;9763;48.780;9.212;2023-04-24T16:43:17;1.50;;;1.20;;
19257;SDS011;9763;48.780;9.212;2023-04-24T16:46:41;1.40;;;1.13;;
19257;SDS011;9763;48.780;9.212;2023-04-24T16:50:07;1.50;;;1.20;;
19257;SDS011;9763;48.780;9.212;2023-04-24T16:53:31;1.40;;;1.13;;
19257;SDS011;9763;48.780;9.212;2023-04-24T16:56:55;2.10;;;1.10;;
19257;SDS011;9763;48.780;9.212;2023-04-24T17:00:20;1.50;;;1.20;;
19257;SDS011;9763;48.780;9.212;2023-04-24T17:03:44;1.40;;;0.90;;
19257;SDS011;9763;48.780;9.212;2023-04-24T17:07:10;1.60;;;1.27;;
19257;SDS011;9763;48.780;9.212;2023-04-24T17:10:34;2.80;;;1.37;;
19257;SDS011;9763;48.780;9.212;2023-04-24T17:13:58;1.60;;;1.20;;
19257;SDS011;9763;48.780;9.212;2023-04-24T17:17:22;1.40;;;1.10;;
19257;SDS011;9763;48.780;9.212;2023-04-24T17:20:46;1.60;;;1.20;;
19257;SDS011;9763;48.780;9.212;2023-04-24T17:24:13;2.17;;;1.10;;
19257;SDS011;9763;48.780;9.212;2023-04-24T17:27:37;1.27;;;1.03;;
19257;SDS011;9763;48.780;9.212;2023-04-24T17:31:00;1.50;;;1.10;;
19257;SDS011;9763;48.780;9.212;2023-04-24T17:34:24;1.43;;;1.30;;
19257;SDS011;9763;48.780;9.212;2023-04-24T17:37:48;1.63;;;1.20;;
19257;SDS011;9763;48.780;9.212;2023-04-24T17:41:13;1.60;;;1.10;;
19257;SDS011;9763;48.780;9.212;2023-04-24T17:44:37;1.60;;;1.37;;
19257;SDS011;9763;48.780;9.212;2023-04-24T17:48:01;1.70;;;1.30;;
19257;SDS011;9763;48.780;9.212;2023-04-24T17:51:25;1.73;;;1.30;;
19257;SDS011;9763;48.780;9.212;2023-04-24T17:54:49;1.53;;;1.23;;
19257;SDS011;9763;48.780;9.212;2023-04-24T17:58:14;1.30;;;1.10;;
19257;SDS011;9763;48.780;9.212;2023-04-24T18:01:39;1.20;;;0.90;;
19257;SDS011;9763;48.780;9.212;2023-04-24T18:05:03;1.30;;;0.90;;
19257;SDS011;9763;48.780;9.212;2023-04-24T18:08:27;1.30;;;1.00;;
19257;SDS011;9763;48.780;9.212;2023-04-24T18:11:50;1.40;;;1.07;;
19257;SDS011;9763;48.780;9.212;2023-04-24T18:15:16;1.30;;;1.10;;
19257;SDS011;9763;48.780;9.212;2023-04-24T18:18:40;1.30;;;0.90;;
19257;SDS011;9763;48.780;9.212;2023-04-24T18:22:03;1.30;;;0.90;;
19257;SDS011;9763;48.780;9.212;2023-04-24T18:25:27;1.20;;;0.90;;
19257;SDS011;9763;48.780;9.212;2023-04-24T18:28:51;2.47;;;1.10;;
19257;SDS011;9763;48.780;9.212;2023-04-24T18:32:16;1.80;;;0.90;;
19257;SDS011;9763;48.780;9.212;2023-04-24T18:35:41;1.20;;;0.90;;
19257;SDS011;9763;48.780;9.212;2023-04-24T18:39:04;1.20;;;0.83;;
19257;SDS011;9763;48.780;9.212;2023-04-24T18:42:28;1.33;;;1.00;;
19257;SDS011;9763;48.780;9.212;2023-04-24T18:45:53;1.40;;;0.97;;
19257;SDS011;9763;48.780;9.212;2023-04-24T18:49:18;1.50;;;0.93;;
19257;SDS011;9763;48.780;9.212;2023-04-24T18:52:42;1.27;;;1.00;;
19257;SDS011;9763;48.780;9.212;2023-04-24T18:56:07;1.37;;;1.07;;
19257;SDS011;9763;48.780;9.212;2023-04-24T18:59:31;1.30;;;0.90;;
19257;SDS011;9763;48.780;9.212;2023-04-24T19:02:55;1.83;;;1.20;;
19257;SDS011;9763;48.780;9.212;2023-04-24T19:06:21;1.20;;;0.87;;
19257;SDS011;9763;48.780;9.212;2023-04-24T19:09:45;1.30;;;0.90;;
19257;SDS011;9763;48.780;9.212;2023-04-24T19:13:09;1.40;;;1.10;;
19257;SDS011;9763;48.780;9.212;2023-04-24T19:16:33;2.00;;;0.80;;
19257;SDS011;9763;48.780;9.212;2023-04-24T19:19:57;1.40;;;1.07;;
19257;SDS011;9763;48.780;9.212;2023-04-24T19:23:23;1.37;;;0.93;;
19257;SDS011;9763;48.780;9.212;2023-04-24T19:26:47;1.30;;;1.00;;
19257;SDS011;9763;48.780;9.212;2023-04-24T19:30:11;1.20;;;0.80;;
19257;SDS011;9763;48.780;9.212;2023-04-24T19:33:36;1.20;;;0.90;;
19257;SDS011;9763;48.780;9.212;2023-04-24T19:37:00;1.30;;;0.97;;
19257;SDS011;9763;48.780;9.212;2023-04-24T19:40:25;1.50;;;0.93;;
19257;SDS011;9763;48.780;9.212;2023-04-24T19:43:49;1.57;;;1.00;;
19257;SDS011;9763;48.780;9.212;2023-04-24T19:47:14;1.20;;;0.80;;
19257;SDS011;9763;48.780;9.212;2023-04-24T19:50:38;1.30;;;1.10;;
19257;SDS011;9763;48.780;9.212;2023-04-24T19:54:04;1.20;;;0.80;;
19257;SDS011;9763;48.780;9.212;2023-04-24T19:57:30;1.37;;;1.03;;
19257;SDS011;9763;48.780;9.212;2023-04-24T20:00:54;1.33;;;0.90;;
19257;SDS011;9763;48.780;9.212;2023-04-24T20:04:18;1.20;;;0.90;;
19257;SDS011;9763;48.780;9.212;2023-04-24T20:07:44;1.20;;;0.90;;
19257;SDS011;9763;48.780;9.212;2023-04-24T20:11:08;1.20;;;0.77;;
19257;SDS011;9763;48.780;9.212;2023-04-24T20:14:33;1.20;;;0.80;;
19257;SDS011;9763;48.780;9.212;2023-04-24T20:17:57;1.10;;;0.80;;
19257;SDS011;9763;48.780;9.212;2023-04-24T20:21:21;1.40;;;0.90;;
19257;SDS011;9763;48.780;9.212;2023-04-24T20:24:44;1.40;;;0.90;;
19257;SDS011;9763;48.780;9.212;2023-04-24T20:28:08;1.20;;;0.90;;
19257;SDS011;9763;48.780;9.212;2023-04-24T20:31:34;1.30;;;1.00;;
19257;SDS011;9763;48.780;9.212;2023-04-24T20:34:57;1.20;;;0.90;;
19257;SDS011;9763;48.780;9.212;2023-04-24T20:38:21;1.50;;;0.80;;
19257;SDS011;9763;48.780;9.212;2023-04-24T20:41:46;2.37;;;0.93;;
19257;SDS011;9763;48.780;9.212;2023-04-24T20:45:10;1.43;;;0.90;;
19257;SDS011;9763;48.780;9.212;2023-04-24T20:48:35;2.00;;;1.10;;
19257;SDS011;9763;48.780;9.212;2023-04-24T20:51:59;1.50;;;1.00;;
19257;SDS011;9763;48.780;9.212;2023-04-24T20:55:23;1.50;;;1.20;;
19257;SDS011;9763;48.780;9.212;2023-04-24T20:58:47;1.47;;;1.20;;